sensor_id;sensor_type;location;lat;lon;timestamp;P1;durP1;ratioP1;P2;durP2;ratioP2
67352;SDS011;54238;52.278;21.056;2022-07-29T00:01:50;11.60;;;4.50;;
67352;SDS011;54238;52.278;21.056;2022-07-29T00:04:21;13.80;;;4.10;;
67352;SDS011;54238;52.278;21.056;2022-07-29T00:06:50;7.50;;;4.50;;
67352;SDS011;54238;52.278;21.056;2022-07-29T00:09:20;10.30;;;4.90;;
67352;SDS011;54238;52.278;21.056;2022-07-29T00:11:56;8.00;;;3.80;;
67352;SDS011;54238;52.278;21.056;2022-07-29T00:14:26;9.90;;;4.40;;
67352;SDS011;54238;52.278;21.056;2022-07-29T00:16:54;9.40;;;3.70;;
67352;SDS011;54238;52.278;21.056;2022-07-29T00:19:27;8.40;;;4.10;;
67352;SDS011;54238;52.278;21.056;2022-07-29T00:21:57;10.00;;;4.70;;
67352;SDS011;54238;52.278;21.056;2022-07-29T00:24:26;8.40;;;4.00;;
67352;SDS011;54238;52.278;21.056;2022-07-29T00:26:56;10.70;;;4.50;;
67352;SDS011;54238;52.278;21.056;2022-07-29T00:29:23;9.20;;;4.10;;
67352;SDS011;54238;52.278;21.056;2022-07-29T00:31:50;8.60;;;4.40;;
67352;SDS011;54238;52.278;21.056;2022-07-29T00:34:20;8.30;;;4.40;;
67352;SDS011;54238;52.278;21.056;2022-07-29T00:37:06;8.60;;;4.00;;
67352;SDS011;54238;52.278;21.056;2022-07-29T00:39:33;10.20;;;4.00;;
67352;SDS011;54238;52.278;21.056;2022-07-29T00:42:04;7.70;;;3.90;;
67352;SDS011;54238;52.278;21.056;2022-07-29T00:44:39;9.40;;;4.10;;
67352;SDS011;54238;52.278;21.056;2022-07-29T00:47:11;9.10;;;3.60;;
67352;SDS011;54238;52.278;21.056;2022-07-29T00:49:41;8.70;;;4.70;;
67352;SDS011;54238;52.278;21.056;2022-07-29T00:52:14;5.90;;;3.70;;
67352;SDS011;54238;52.278;21.056;2022-07-29T00:54:43;7.40;;;3.80;;
67352;SDS011;54238;52.278;21.056;2022-07-29T00:57:13;7.10;;;3.70;;
67352;SDS011;54238;52.278;21.056;2022-07-29T00:59:40;8.70;;;4.10;;
67352;SDS011;54238;52.278;21.056;2022-07-29T01:02:09;8.30;;;3.90;;
67352;SDS011;54238;52.278;21.056;2022-07-29T01:04:36;12.30;;;3.30;;
67352;SDS011;54238;52.278;21.056;2022-07-29T01:07:08;8.70;;;4.50;;
67352;SDS011;54238;52.278;21.056;2022-07-29T01:09:56;8.40;;;4.00;;
67352;SDS011;54238;52.278;21.056;2022-07-29T01:12:54;7.70;;;3.90;;
67352;SDS011;54238;52.278;21.056;2022-07-29T01:15:54;10.40;;;4.10;;
67352;SDS011;54238;52.278;21.056;2022-07-29T01:18:32;7.30;;;3.80;;
67352;SDS011;54238;52.278;21.056;2022-07-29T01:24:57;8.60;;;3.40;;
67352;SDS011;54238;52.278;21.056;2022-07-29T01:30:44;11.50;;;4.10;;
67352;SDS011;54238;52.278;21.056;2022-07-29T01:33:22;7.50;;;4.00;;
67352;SDS011;54238;52.278;21.056;2022-07-29T01:36:37;7.40;;;4.10;;
67352;SDS011;54238;52.278;21.056;2022-07-29T01:39:42;7.20;;;3.80;;
67352;SDS011;54238;52.278;21.056;2022-07-29T01:42:23;11.80;;;3.70;;
67352;SDS011;54238;52.278;21.056;2022-07-29T01:45:40;9.80;;;3.50;;
67352;SDS011;54238;52.278;21.056;2022-07-29T01:48:42;7.00;;;3.50;;
67352;SDS011;54238;52.278;21.056;2022-07-29T01:51:24;7.60;;;3.40;;
67352;SDS011;54238;52.278;21.056;2022-07-29T01:54:16;7.40;;;3.80;;
67352;SDS011;54238;52.278;21.056;2022-07-29T01:56:53;9.10;;;3.50;;
67352;SDS011;54238;52.278;21.056;2022-07-29T01:59:23;6.20;;;3.40;;
67352;SDS011;54238;52.278;21.056;2022-07-29T02:01:58;9.50;;;3.50;;
67352;SDS011;54238;52.278;21.056;2022-07-29T02:04:33;7.10;;;3.10;;
67352;SDS011;54238;52.278;21.056;2022-07-29T02:07:07;9.70;;;3.70;;
67352;SDS011;54238;52.278;21.056;2022-07-29T02:09:43;9.90;;;3.40;;
67352;SDS011;54238;52.278;21.056;2022-07-29T02:12:16;4.50;;;3.20;;
67352;SDS011;54238;52.278;21.056;2022-07-29T02:14:51;7.00;;;3.00;;
67352;SDS011;54238;52.278;21.056;2022-07-29T02:17:41;8.90;;;3.40;;
67352;SDS011;54238;52.278;21.056;2022-07-29T02:20:14;7.20;;;3.40;;
67352;SDS011;54238;52.278;21.056;2022-07-29T02:22:47;7.60;;;3.20;;
67352;SDS011;54238;52.278;21.056;2022-07-29T02:25:21;7.90;;;3.80;;
67352;SDS011;54238;52.278;21.056;2022-07-29T02:27:51;5.70;;;3.20;;
67352;SDS011;54238;52.278;21.056;2022-07-29T02:30:21;6.00;;;3.40;;
67352;SDS011;54238;52.278;21.056;2022-07-29T02:32:54;5.00;;;3.20;;
67352;SDS011;54238;52.278;21.056;2022-07-29T02:35:23;8.90;;;3.60;;
67352;SDS011;54238;52.278;21.056;2022-07-29T02:37:58;11.50;;;9.10;;
67352;SDS011;54238;52.278;21.056;2022-07-29T02:40:46;18.80;;;13.00;;
67352;SDS011;54238;52.278;21.056;2022-07-29T02:43:15;32.20;;;25.60;;
67352;SDS011;54238;52.278;21.056;2022-07-29T02:45:56;36.20;;;30.40;;
67352;SDS011;54238;52.278;21.056;2022-07-29T02:48:34;34.30;;;27.60;;
67352;SDS011;54238;52.278;21.056;2022-07-29T02:51:12;34.10;;;27.70;;
67352;SDS011;54238;52.278;21.056;2022-07-29T02:53:50;25.60;;;19.30;;
67352;SDS011;54238;52.278;21.056;2022-07-29T02:56:25;16.80;;;11.20;;
67352;SDS011;54238;52.278;21.056;2022-07-29T02:59:03;15.60;;;9.60;;
67352;SDS011;54238;52.278;21.056;2022-07-29T03:01:33;9.90;;;7.30;;
67352;SDS011;54238;52.278;21.056;2022-07-29T03:04:04;11.50;;;5.40;;
67352;SDS011;54238;52.278;21.056;2022-07-29T03:06:32;8.80;;;3.90;;
67352;SDS011;54238;52.278;21.056;2022-07-29T03:09:06;9.30;;;4.20;;
67352;SDS011;54238;52.278;21.056;2022-07-29T03:11:34;9.30;;;4.00;;
67352;SDS011;54238;52.278;21.056;2022-07-29T03:14:04;7.10;;;3.50;;
67352;SDS011;54238;52.278;21.056;2022-07-29T03:16:37;7.70;;;3.30;;
67352;SDS011;54238;52.278;21.056;2022-07-29T03:19:07;5.60;;;3.20;;
67352;SDS011;54238;52.278;21.056;2022-07-29T03:21:34;5.50;;;2.80;;
67352;SDS011;54238;52.278;21.056;2022-07-29T03:24:01;7.80;;;3.30;;
67352;SDS011;54238;52.278;21.056;2022-07-29T03:26:28;6.20;;;3.00;;
67352;SDS011;54238;52.278;21.056;2022-07-29T03:28:56;4.90;;;3.10;;
67352;SDS011;54238;52.278;21.056;2022-07-29T03:31:23;10.10;;;3.10;;
67352;SDS011;54238;52.278;21.056;2022-07-29T03:33:50;6.80;;;3.50;;
67352;SDS011;54238;52.278;21.056;2022-07-29T03:36:17;7.10;;;3.60;;
67352;SDS011;54238;52.278;21.056;2022-07-29T03:38:46;7.80;;;3.10;;
67352;SDS011;54238;52.278;21.056;2022-07-29T03:41:18;6.00;;;2.90;;
67352;SDS011;54238;52.278;21.056;2022-07-29T03:43:49;6.30;;;2.70;;
67352;SDS011;54238;52.278;21.056;2022-07-29T03:46:21;10.80;;;3.50;;
67352;SDS011;54238;52.278;21.056;2022-07-29T03:48:53;8.00;;;3.80;;
67352;SDS011;54238;52.278;21.056;2022-07-29T03:51:31;6.40;;;2.80;;
67352;SDS011;54238;52.278;21.056;2022-07-29T03:53:58;8.40;;;3.50;;
67352;SDS011;54238;52.278;21.056;2022-07-29T03:56:27;5.60;;;3.10;;
67352;SDS011;54238;52.278;21.056;2022-07-29T03:59:03;6.90;;;2.40;;
67352;SDS011;54238;52.278;21.056;2022-07-29T04:01:33;5.30;;;2.60;;
67352;SDS011;54238;52.278;21.056;2022-07-29T04:04:04;3.90;;;2.50;;
67352;SDS011;54238;52.278;21.056;2022-07-29T04:06:42;7.70;;;2.70;;
67352;SDS011;54238;52.278;21.056;2022-07-29T04:09:10;6.50;;;3.00;;
67352;SDS011;54238;52.278;21.056;2022-07-29T04:11:41;6.60;;;2.30;;
67352;SDS011;54238;52.278;21.056;2022-07-29T04:14:11;3.80;;;2.60;;
67352;SDS011;54238;52.278;21.056;2022-07-29T04:16:49;9.30;;;2.70;;
67352;SDS011;54238;52.278;21.056;2022-07-29T04:19:19;3.90;;;3.10;;
67352;SDS011;54238;52.278;21.056;2022-07-29T04:24:47;4.30;;;2.40;;
67352;SDS011;54238;52.278;21.056;2022-07-29T04:27:17;6.10;;;2.80;;
67352;SDS011;54238;52.278;21.056;2022-07-29T04:29:48;6.10;;;3.00;;
67352;SDS011;54238;52.278;21.056;2022-07-29T04:32:15;4.40;;;2.80;;
67352;SDS011;54238;52.278;21.056;2022-07-29T04:34:45;6.20;;;2.00;;
67352;SDS011;54238;52.278;21.056;2022-07-29T04:37:15;5.90;;;2.70;;
67352;SDS011;54238;52.278;21.056;2022-07-29T04:39:42;3.90;;;2.50;;
67352;SDS011;54238;52.278;21.056;2022-07-29T04:42:09;3.90;;;2.10;;
67352;SDS011;54238;52.278;21.056;2022-07-29T04:44:36;6.40;;;2.80;;
67352;SDS011;54238;52.278;21.056;2022-07-29T04:47:03;4.40;;;3.00;;
67352;SDS011;54238;52.278;21.056;2022-07-29T04:49:39;8.40;;;6.10;;
67352;SDS011;54238;52.278;21.056;2022-07-29T04:52:06;9.80;;;3.50;;
67352;SDS011;54238;52.278;21.056;2022-07-29T04:54:35;4.20;;;2.40;;
67352;SDS011;54238;52.278;21.056;2022-07-29T04:57:02;6.20;;;2.30;;
67352;SDS011;54238;52.278;21.056;2022-07-29T04:59:29;5.90;;;2.30;;
67352;SDS011;54238;52.278;21.056;2022-07-29T05:01:56;2.60;;;1.80;;
67352;SDS011;54238;52.278;21.056;2022-07-29T05:04:23;3.00;;;1.90;;
67352;SDS011;54238;52.278;21.056;2022-07-29T05:06:54;5.40;;;2.20;;
67352;SDS011;54238;52.278;21.056;2022-07-29T05:09:20;3.90;;;1.90;;
67352;SDS011;54238;52.278;21.056;2022-07-29T05:11:47;2.90;;;1.90;;
67352;SDS011;54238;52.278;21.056;2022-07-29T05:14:19;8.60;;;2.10;;
67352;SDS011;54238;52.278;21.056;2022-07-29T05:16:46;4.40;;;2.50;;
67352;SDS011;54238;52.278;21.056;2022-07-29T05:19:16;4.80;;;2.00;;
67352;SDS011;54238;52.278;21.056;2022-07-29T05:21:46;3.70;;;1.90;;
67352;SDS011;54238;52.278;21.056;2022-07-29T05:24:14;5.80;;;1.60;;
67352;SDS011;54238;52.278;21.056;2022-07-29T05:26:43;6.70;;;1.70;;
67352;SDS011;54238;52.278;21.056;2022-07-29T05:29:17;4.50;;;2.00;;
67352;SDS011;54238;52.278;21.056;2022-07-29T05:31:44;2.80;;;1.70;;
67352;SDS011;54238;52.278;21.056;2022-07-29T05:34:11;4.70;;;1.70;;
67352;SDS011;54238;52.278;21.056;2022-07-29T05:36:43;5.50;;;1.90;;
67352;SDS011;54238;52.278;21.056;2022-07-29T05:39:10;4.50;;;1.50;;
67352;SDS011;54238;52.278;21.056;2022-07-29T05:44:40;6.00;;;1.80;;
67352;SDS011;54238;52.278;21.056;2022-07-29T05:47:10;5.00;;;1.70;;
67352;SDS011;54238;52.278;21.056;2022-07-29T05:49:42;5.00;;;2.20;;
67352;SDS011;54238;52.278;21.056;2022-07-29T05:52:12;3.70;;;1.90;;
67352;SDS011;54238;52.278;21.056;2022-07-29T05:54:40;3.10;;;1.90;;
67352;SDS011;54238;52.278;21.056;2022-07-29T06:00:10;5.50;;;1.80;;
67352;SDS011;54238;52.278;21.056;2022-07-29T06:02:40;4.60;;;1.80;;
67352;SDS011;54238;52.278;21.056;2022-07-29T06:05:07;2.50;;;1.50;;
67352;SDS011;54238;52.278;21.056;2022-07-29T06:07:42;7.00;;;2.20;;
67352;SDS011;54238;52.278;21.056;2022-07-29T06:10:09;4.90;;;2.20;;
67352;SDS011;54238;52.278;21.056;2022-07-29T06:15:13;3.90;;;1.70;;
67352;SDS011;54238;52.278;21.056;2022-07-29T06:17:43;2.20;;;1.40;;
67352;SDS011;54238;52.278;21.056;2022-07-29T06:20:10;3.10;;;1.60;;
67352;SDS011;54238;52.278;21.056;2022-07-29T06:22:38;3.50;;;1.80;;
67352;SDS011;54238;52.278;21.056;2022-07-29T06:25:05;6.20;;;1.80;;
67352;SDS011;54238;52.278;21.056;2022-07-29T06:27:32;5.50;;;1.70;;
67352;SDS011;54238;52.278;21.056;2022-07-29T06:30:02;6.70;;;2.40;;
67352;SDS011;54238;52.278;21.056;2022-07-29T06:32:30;4.20;;;1.90;;
67352;SDS011;54238;52.278;21.056;2022-07-29T06:34:57;3.50;;;1.70;;
67352;SDS011;54238;52.278;21.056;2022-07-29T06:37:29;8.70;;;2.10;;
67352;SDS011;54238;52.278;21.056;2022-07-29T06:39:58;3.10;;;1.50;;
67352;SDS011;54238;52.278;21.056;2022-07-29T06:42:46;4.40;;;1.60;;
67352;SDS011;54238;52.278;21.056;2022-07-29T06:45:18;6.80;;;2.00;;
67352;SDS011;54238;52.278;21.056;2022-07-29T06:47:48;5.60;;;1.70;;
67352;SDS011;54238;52.278;21.056;2022-07-29T06:50:17;3.90;;;1.40;;
67352;SDS011;54238;52.278;21.056;2022-07-29T06:52:44;6.60;;;1.60;;
67352;SDS011;54238;52.278;21.056;2022-07-29T06:55:13;3.90;;;1.30;;
67352;SDS011;54238;52.278;21.056;2022-07-29T06:57:40;6.60;;;1.60;;
67352;SDS011;54238;52.278;21.056;2022-07-29T07:00:09;10.30;;;2.10;;
67352;SDS011;54238;52.278;21.056;2022-07-29T07:02:39;4.20;;;1.20;;
67352;SDS011;54238;52.278;21.056;2022-07-29T07:05:12;6.20;;;1.60;;
67352;SDS011;54238;52.278;21.056;2022-07-29T07:07:42;5.80;;;1.50;;
67352;SDS011;54238;52.278;21.056;2022-07-29T07:10:09;2.50;;;1.30;;
67352;SDS011;54238;52.278;21.056;2022-07-29T07:12:36;2.80;;;1.10;;
67352;SDS011;54238;52.278;21.056;2022-07-29T07:15:06;7.10;;;1.40;;
67352;SDS011;54238;52.278;21.056;2022-07-29T07:17:35;5.50;;;1.40;;
67352;SDS011;54238;52.278;21.056;2022-07-29T07:20:07;8.80;;;1.60;;
67352;SDS011;54238;52.278;21.056;2022-07-29T07:22:39;3.30;;;1.30;;
67352;SDS011;54238;52.278;21.056;2022-07-29T07:25:08;3.40;;;1.20;;
67352;SDS011;54238;52.278;21.056;2022-07-29T07:27:41;3.40;;;1.20;;
67352;SDS011;54238;52.278;21.056;2022-07-29T07:30:10;6.40;;;1.50;;
67352;SDS011;54238;52.278;21.056;2022-07-29T07:32:40;3.10;;;1.20;;
67352;SDS011;54238;52.278;21.056;2022-07-29T07:35:10;4.40;;;1.10;;
67352;SDS011;54238;52.278;21.056;2022-07-29T07:37:38;1.40;;;1.10;;
67352;SDS011;54238;52.278;21.056;2022-07-29T07:40:11;4.60;;;1.20;;
67352;SDS011;54238;52.278;21.056;2022-07-29T07:42:39;6.70;;;1.70;;
67352;SDS011;54238;52.278;21.056;2022-07-29T07:45:08;3.30;;;1.60;;
67352;SDS011;54238;52.278;21.056;2022-07-29T07:47:36;4.00;;;1.60;;
67352;SDS011;54238;52.278;21.056;2022-07-29T07:50:05;2.20;;;1.50;;
67352;SDS011;54238;52.278;21.056;2022-07-29T07:52:46;7.90;;;1.80;;
67352;SDS011;54238;52.278;21.056;2022-07-29T07:55:19;3.90;;;1.30;;
67352;SDS011;54238;52.278;21.056;2022-07-29T07:57:49;3.90;;;1.70;;
67352;SDS011;54238;52.278;21.056;2022-07-29T08:00:21;5.00;;;2.00;;
67352;SDS011;54238;52.278;21.056;2022-07-29T08:02:50;4.30;;;2.50;;
67352;SDS011;54238;52.278;21.056;2022-07-29T08:05:20;3.30;;;1.70;;
67352;SDS011;54238;52.278;21.056;2022-07-29T08:07:47;5.20;;;2.90;;
67352;SDS011;54238;52.278;21.056;2022-07-29T08:10:18;8.70;;;4.10;;
67352;SDS011;54238;52.278;21.056;2022-07-29T08:13:09;4.70;;;1.50;;
67352;SDS011;54238;52.278;21.056;2022-07-29T08:15:42;11.50;;;1.70;;
67352;SDS011;54238;52.278;21.056;2022-07-29T08:18:15;2.80;;;1.60;;
67352;SDS011;54238;52.278;21.056;2022-07-29T08:20:47;5.10;;;1.70;;
67352;SDS011;54238;52.278;21.056;2022-07-29T08:23:14;5.20;;;1.90;;
67352;SDS011;54238;52.278;21.056;2022-07-29T08:26:06;7.90;;;1.60;;
67352;SDS011;54238;52.278;21.056;2022-07-29T08:28:52;4.80;;;1.50;;
67352;SDS011;54238;52.278;21.056;2022-07-29T08:31:24;3.60;;;1.50;;
67352;SDS011;54238;52.278;21.056;2022-07-29T08:33:51;4.60;;;1.60;;
67352;SDS011;54238;52.278;21.056;2022-07-29T08:36:18;2.90;;;1.30;;
67352;SDS011;54238;52.278;21.056;2022-07-29T08:38:47;2.80;;;1.20;;
67352;SDS011;54238;52.278;21.056;2022-07-29T08:41:19;2.50;;;1.40;;
67352;SDS011;54238;52.278;21.056;2022-07-29T08:43:47;5.00;;;1.60;;
67352;SDS011;54238;52.278;21.056;2022-07-29T08:46:21;4.10;;;1.70;;
67352;SDS011;54238;52.278;21.056;2022-07-29T08:48:48;4.30;;;1.40;;
67352;SDS011;54238;52.278;21.056;2022-07-29T08:51:20;2.70;;;1.30;;
67352;SDS011;54238;52.278;21.056;2022-07-29T08:53:49;2.10;;;1.40;;
67352;SDS011;54238;52.278;21.056;2022-07-29T08:56:22;6.70;;;1.50;;
67352;SDS011;54238;52.278;21.056;2022-07-29T08:58:53;5.90;;;1.80;;
67352;SDS011;54238;52.278;21.056;2022-07-29T09:01:23;8.70;;;2.00;;
67352;SDS011;54238;52.278;21.056;2022-07-29T09:03:58;2.80;;;1.60;;
67352;SDS011;54238;52.278;21.056;2022-07-29T09:06:31;5.20;;;1.60;;
67352;SDS011;54238;52.278;21.056;2022-07-29T09:09:00;3.60;;;1.50;;
67352;SDS011;54238;52.278;21.056;2022-07-29T09:11:27;5.10;;;1.40;;
67352;SDS011;54238;52.278;21.056;2022-07-29T09:13:59;4.60;;;1.80;;
67352;SDS011;54238;52.278;21.056;2022-07-29T09:16:50;6.30;;;1.80;;
67352;SDS011;54238;52.278;21.056;2022-07-29T09:19:22;6.90;;;1.30;;
67352;SDS011;54238;52.278;21.056;2022-07-29T09:22:10;2.90;;;1.50;;
67352;SDS011;54238;52.278;21.056;2022-07-29T09:24:41;3.00;;;1.30;;
67352;SDS011;54238;52.278;21.056;2022-07-29T09:29:55;4.70;;;1.40;;
67352;SDS011;54238;52.278;21.056;2022-07-29T09:32:27;5.30;;;1.40;;
67352;SDS011;54238;52.278;21.056;2022-07-29T09:35:18;4.60;;;1.50;;
67352;SDS011;54238;52.278;21.056;2022-07-29T09:37:47;4.80;;;1.20;;
67352;SDS011;54238;52.278;21.056;2022-07-29T09:40:17;3.00;;;1.00;;
67352;SDS011;54238;52.278;21.056;2022-07-29T09:47:55;4.60;;;1.40;;
67352;SDS011;54238;52.278;21.056;2022-07-29T09:50:36;3.60;;;1.50;;
67352;SDS011;54238;52.278;21.056;2022-07-29T09:53:04;3.40;;;1.30;;
67352;SDS011;54238;52.278;21.056;2022-07-29T09:55:48;2.50;;;1.50;;
67352;SDS011;54238;52.278;21.056;2022-07-29T09:58:20;4.90;;;1.30;;
67352;SDS011;54238;52.278;21.056;2022-07-29T10:00:52;3.00;;;1.30;;
67352;SDS011;54238;52.278;21.056;2022-07-29T10:03:24;3.20;;;1.40;;
67352;SDS011;54238;52.278;21.056;2022-07-29T10:06:09;2.30;;;1.00;;
67352;SDS011;54238;52.278;21.056;2022-07-29T10:08:41;3.00;;;1.40;;
67352;SDS011;54238;52.278;21.056;2022-07-29T10:11:15;3.20;;;1.60;;
67352;SDS011;54238;52.278;21.056;2022-07-29T10:13:47;5.80;;;1.40;;
67352;SDS011;54238;52.278;21.056;2022-07-29T10:16:19;4.80;;;1.80;;
67352;SDS011;54238;52.278;21.056;2022-07-29T10:18:49;3.00;;;1.90;;
67352;SDS011;54238;52.278;21.056;2022-07-29T10:21:20;6.00;;;3.60;;
67352;SDS011;54238;52.278;21.056;2022-07-29T10:23:49;3.10;;;1.70;;
67352;SDS011;54238;52.278;21.056;2022-07-29T10:26:17;4.10;;;1.20;;
67352;SDS011;54238;52.278;21.056;2022-07-29T10:28:45;4.10;;;2.10;;
67352;SDS011;54238;52.278;21.056;2022-07-29T10:31:29;3.10;;;1.50;;
67352;SDS011;54238;52.278;21.056;2022-07-29T10:34:22;4.90;;;1.50;;
67352;SDS011;54238;52.278;21.056;2022-07-29T10:39:45;3.00;;;1.10;;
67352;SDS011;54238;52.278;21.056;2022-07-29T10:42:30;11.80;;;2.00;;
67352;SDS011;54238;52.278;21.056;2022-07-29T10:44:57;2.90;;;1.10;;
67352;SDS011;54238;52.278;21.056;2022-07-29T10:47:25;3.40;;;1.30;;
67352;SDS011;54238;52.278;21.056;2022-07-29T10:49:59;6.10;;;1.30;;
67352;SDS011;54238;52.278;21.056;2022-07-29T10:55:35;2.80;;;1.30;;
67352;SDS011;54238;52.278;21.056;2022-07-29T11:00:44;4.30;;;1.80;;
67352;SDS011;54238;52.278;21.056;2022-07-29T11:06:07;4.20;;;1.30;;
67352;SDS011;54238;52.278;21.056;2022-07-29T11:08:39;3.00;;;1.60;;
67352;SDS011;54238;52.278;21.056;2022-07-29T11:16:24;6.20;;;2.00;;
67352;SDS011;54238;52.278;21.056;2022-07-29T11:21:42;3.20;;;2.40;;
67352;SDS011;54238;52.278;21.056;2022-07-29T11:24:44;4.30;;;2.30;;
67352;SDS011;54238;52.278;21.056;2022-07-29T11:27:31;4.80;;;1.90;;
67352;SDS011;54238;52.278;21.056;2022-07-29T11:30:07;2.30;;;1.20;;
67352;SDS011;54238;52.278;21.056;2022-07-29T11:32:43;5.30;;;1.30;;
67352;SDS011;54238;52.278;21.056;2022-07-29T11:35:21;4.50;;;1.30;;
67352;SDS011;54238;52.278;21.056;2022-07-29T11:41:24;5.30;;;1.80;;
67352;SDS011;54238;52.278;21.056;2022-07-29T11:43:58;4.40;;;1.50;;
67352;SDS011;54238;52.278;21.056;2022-07-29T11:46:50;3.20;;;1.80;;
67352;SDS011;54238;52.278;21.056;2022-07-29T11:49:24;4.20;;;2.90;;
67352;SDS011;54238;52.278;21.056;2022-07-29T11:52:01;3.40;;;1.80;;
67352;SDS011;54238;52.278;21.056;2022-07-29T11:54:33;5.20;;;2.40;;
67352;SDS011;54238;52.278;21.056;2022-07-29T11:58:01;1.80;;;1.50;;
67352;SDS011;54238;52.278;21.056;2022-07-29T12:00:31;6.10;;;1.30;;
67352;SDS011;54238;52.278;21.056;2022-07-29T12:03:07;3.50;;;1.40;;
67352;SDS011;54238;52.278;21.056;2022-07-29T12:05:43;2.20;;;1.30;;
67352;SDS011;54238;52.278;21.056;2022-07-29T12:08:18;7.20;;;1.50;;
67352;SDS011;54238;52.278;21.056;2022-07-29T12:10:50;1.80;;;1.20;;
67352;SDS011;54238;52.278;21.056;2022-07-29T12:13:20;5.00;;;1.90;;
67352;SDS011;54238;52.278;21.056;2022-07-29T12:15:55;4.60;;;1.20;;
67352;SDS011;54238;52.278;21.056;2022-07-29T12:18:26;2.40;;;1.00;;
67352;SDS011;54238;52.278;21.056;2022-07-29T12:20:59;6.20;;;1.00;;
67352;SDS011;54238;52.278;21.056;2022-07-29T12:23:32;2.80;;;1.30;;
67352;SDS011;54238;52.278;21.056;2022-07-29T12:26:07;5.50;;;1.20;;
67352;SDS011;54238;52.278;21.056;2022-07-29T12:28:39;2.60;;;1.10;;
67352;SDS011;54238;52.278;21.056;2022-07-29T12:31:13;3.60;;;1.10;;
67352;SDS011;54238;52.278;21.056;2022-07-29T12:33:52;3.20;;;1.10;;
67352;SDS011;54238;52.278;21.056;2022-07-29T12:36:20;1.90;;;1.00;;
67352;SDS011;54238;52.278;21.056;2022-07-29T12:38:52;1.70;;;1.10;;
67352;SDS011;54238;52.278;21.056;2022-07-29T12:41:21;1.50;;;1.10;;
67352;SDS011;54238;52.278;21.056;2022-07-29T12:43:53;2.50;;;1.30;;
67352;SDS011;54238;52.278;21.056;2022-07-29T12:46:26;2.70;;;1.20;;
67352;SDS011;54238;52.278;21.056;2022-07-29T12:48:56;1.70;;;1.00;;
67352;SDS011;54238;52.278;21.056;2022-07-29T12:51:30;2.80;;;1.20;;
67352;SDS011;54238;52.278;21.056;2022-07-29T12:54:14;2.30;;;1.10;;
67352;SDS011;54238;52.278;21.056;2022-07-29T12:56:43;5.90;;;1.40;;
67352;SDS011;54238;52.278;21.056;2022-07-29T12:59:23;5.50;;;1.50;;
67352;SDS011;54238;52.278;21.056;2022-07-29T13:01:52;2.10;;;1.10;;
67352;SDS011;54238;52.278;21.056;2022-07-29T13:04:30;7.30;;;1.40;;
67352;SDS011;54238;52.278;21.056;2022-07-29T13:07:07;2.70;;;1.40;;
67352;SDS011;54238;52.278;21.056;2022-07-29T13:09:40;2.40;;;1.00;;
67352;SDS011;54238;52.278;21.056;2022-07-29T13:12:13;3.40;;;1.10;;
67352;SDS011;54238;52.278;21.056;2022-07-29T13:14:45;1.90;;;0.90;;
67352;SDS011;54238;52.278;21.056;2022-07-29T13:17:15;4.30;;;1.10;;
67352;SDS011;54238;52.278;21.056;2022-07-29T13:20:08;4.10;;;1.50;;
67352;SDS011;54238;52.278;21.056;2022-07-29T13:22:41;9.10;;;2.10;;
67352;SDS011;54238;52.278;21.056;2022-07-29T13:25:12;3.20;;;1.30;;
67352;SDS011;54238;52.278;21.056;2022-07-29T13:27:39;1.70;;;1.30;;
67352;SDS011;54238;52.278;21.056;2022-07-29T13:30:08;4.60;;;1.30;;
67352;SDS011;54238;52.278;21.056;2022-07-29T13:32:37;1.80;;;1.10;;
67352;SDS011;54238;52.278;21.056;2022-07-29T13:35:07;6.10;;;1.00;;
67352;SDS011;54238;52.278;21.056;2022-07-29T13:37:40;3.40;;;1.20;;
67352;SDS011;54238;52.278;21.056;2022-07-29T13:40:08;5.00;;;1.30;;
67352;SDS011;54238;52.278;21.056;2022-07-29T13:42:39;3.90;;;0.90;;
67352;SDS011;54238;52.278;21.056;2022-07-29T13:45:09;3.60;;;1.00;;
67352;SDS011;54238;52.278;21.056;2022-07-29T13:47:44;5.30;;;1.10;;
67352;SDS011;54238;52.278;21.056;2022-07-29T13:50:17;3.10;;;1.10;;
67352;SDS011;54238;52.278;21.056;2022-07-29T13:52:45;2.10;;;1.00;;
67352;SDS011;54238;52.278;21.056;2022-07-29T13:55:27;2.70;;;1.20;;
67352;SDS011;54238;52.278;21.056;2022-07-29T13:57:54;3.00;;;1.10;;
67352;SDS011;54238;52.278;21.056;2022-07-29T14:00:21;1.80;;;1.00;;
67352;SDS011;54238;52.278;21.056;2022-07-29T14:03:21;5.20;;;1.50;;
67352;SDS011;54238;52.278;21.056;2022-07-29T14:05:50;3.40;;;1.10;;
67352;SDS011;54238;52.278;21.056;2022-07-29T14:08:22;2.80;;;0.90;;
67352;SDS011;54238;52.278;21.056;2022-07-29T14:10:56;4.40;;;1.10;;
67352;SDS011;54238;52.278;21.056;2022-07-29T14:13:23;2.50;;;1.10;;
67352;SDS011;54238;52.278;21.056;2022-07-29T14:18:49;2.40;;;1.00;;
67352;SDS011;54238;52.278;21.056;2022-07-29T14:21:16;3.20;;;0.90;;
67352;SDS011;54238;52.278;21.056;2022-07-29T14:23:44;1.80;;;1.20;;
67352;SDS011;54238;52.278;21.056;2022-07-29T14:29:13;3.80;;;1.20;;
67352;SDS011;54238;52.278;21.056;2022-07-29T14:31:43;2.30;;;1.20;;
67352;SDS011;54238;52.278;21.056;2022-07-29T14:34:12;3.00;;;1.00;;
67352;SDS011;54238;52.278;21.056;2022-07-29T14:36:39;1.80;;;0.90;;
67352;SDS011;54238;52.278;21.056;2022-07-29T14:39:09;1.50;;;0.90;;
67352;SDS011;54238;52.278;21.056;2022-07-29T14:44:42;6.10;;;1.10;;
67352;SDS011;54238;52.278;21.056;2022-07-29T14:47:12;2.50;;;1.10;;
67352;SDS011;54238;52.278;21.056;2022-07-29T14:49:41;1.70;;;1.20;;
67352;SDS011;54238;52.278;21.056;2022-07-29T14:52:12;1.40;;;0.90;;
67352;SDS011;54238;52.278;21.056;2022-07-29T14:54:41;2.20;;;1.00;;
67352;SDS011;54238;52.278;21.056;2022-07-29T14:57:36;3.20;;;1.00;;
67352;SDS011;54238;52.278;21.056;2022-07-29T15:00:04;2.40;;;1.00;;
67352;SDS011;54238;52.278;21.056;2022-07-29T15:02:34;3.40;;;1.30;;
67352;SDS011;54238;52.278;21.056;2022-07-29T15:05:05;3.40;;;0.90;;
67352;SDS011;54238;52.278;21.056;2022-07-29T15:07:34;2.70;;;1.10;;
67352;SDS011;54238;52.278;21.056;2022-07-29T15:10:01;4.30;;;1.20;;
67352;SDS011;54238;52.278;21.056;2022-07-29T15:12:33;1.60;;;0.90;;
67352;SDS011;54238;52.278;21.056;2022-07-29T15:15:03;1.80;;;1.00;;
67352;SDS011;54238;52.278;21.056;2022-07-29T15:17:30;4.10;;;1.20;;
67352;SDS011;54238;52.278;21.056;2022-07-29T15:20:04;2.00;;;1.10;;
67352;SDS011;54238;52.278;21.056;2022-07-29T15:22:34;2.80;;;1.10;;
67352;SDS011;54238;52.278;21.056;2022-07-29T15:25:01;2.50;;;1.30;;
67352;SDS011;54238;52.278;21.056;2022-07-29T15:27:28;6.40;;;1.50;;
67352;SDS011;54238;52.278;21.056;2022-07-29T15:29:55;1.80;;;1.10;;
67352;SDS011;54238;52.278;21.056;2022-07-29T15:32:25;2.40;;;1.30;;
67352;SDS011;54238;52.278;21.056;2022-07-29T15:34:55;3.40;;;1.10;;
67352;SDS011;54238;52.278;21.056;2022-07-29T15:37:22;7.30;;;1.80;;
67352;SDS011;54238;52.278;21.056;2022-07-29T15:39:48;5.00;;;1.00;;
67352;SDS011;54238;52.278;21.056;2022-07-29T15:42:15;3.70;;;1.30;;
67352;SDS011;54238;52.278;21.056;2022-07-29T15:44:45;3.00;;;1.00;;
67352;SDS011;54238;52.278;21.056;2022-07-29T15:47:12;4.00;;;1.10;;
67352;SDS011;54238;52.278;21.056;2022-07-29T15:49:39;5.80;;;1.20;;
67352;SDS011;54238;52.278;21.056;2022-07-29T15:52:08;8.90;;;1.00;;
67352;SDS011;54238;52.278;21.056;2022-07-29T15:54:39;2.00;;;1.00;;
67352;SDS011;54238;52.278;21.056;2022-07-29T15:57:14;2.60;;;1.00;;
67352;SDS011;54238;52.278;21.056;2022-07-29T15:59:43;4.80;;;1.20;;
67352;SDS011;54238;52.278;21.056;2022-07-29T16:02:12;5.60;;;1.20;;
67352;SDS011;54238;52.278;21.056;2022-07-29T16:04:44;2.30;;;1.00;;